sensor_id;sensor_type;location;lat;lon;timestamp;P1;durP1;ratioP1;P2;durP2;ratioP2
6860;SDS011;3469;47.060;15.460;2022-08-16T00:01:19;5.73;;;5.13;;
6860;SDS011;3469;47.060;15.460;2022-08-16T00:03:52;11.43;;;3.50;;
6860;SDS011;3469;47.060;15.460;2022-08-16T00:06:21;4.50;;;4.10;;
6860;SDS011;3469;47.060;15.460;2022-08-16T00:08:50;7.70;;;4.27;;
6860;SDS011;3469;47.060;15.460;2022-08-16T00:11:18;4.40;;;4.00;;
6860;SDS011;3469;47.060;15.460;2022-08-16T00:13:48;4.83;;;4.33;;
6860;SDS011;3469;47.060;15.460;2022-08-16T00:16:21;4.17;;;3.80;;
6860;SDS011;3469;47.060;15.460;2022-08-16T00:19:11;7.50;;;4.77;;
6860;SDS011;3469;47.060;15.460;2022-08-16T00:21:41;4.00;;;3.33;;
6860;SDS011;3469;47.060;15.460;2022-08-16T00:24:10;4.23;;;3.40;;
6860;SDS011;3469;47.060;15.460;2022-08-16T00:26:56;5.77;;;4.33;;
6860;SDS011;3469;47.060;15.460;2022-08-16T00:29:26;5.73;;;4.53;;
6860;SDS011;3469;47.060;15.460;2022-08-16T00:31:55;5.83;;;5.20;;
6860;SDS011;3469;47.060;15.460;2022-08-16T00:34:34;5.77;;;4.90;;
6860;SDS011;3469;47.060;15.460;2022-08-16T00:37:19;5.30;;;4.87;;
6860;SDS011;3469;47.060;15.460;2022-08-16T00:39:50;6.33;;;4.97;;
6860;SDS011;3469;47.060;15.460;2022-08-16T00:42:24;6.10;;;5.37;;
6860;SDS011;3469;47.060;15.460;2022-08-16T00:44:59;6.00;;;4.83;;
6860;SDS011;3469;47.060;15.460;2022-08-16T00:47:34;5.20;;;4.70;;
6860;SDS011;3469;47.060;15.460;2022-08-16T00:50:05;5.30;;;4.80;;
6860;SDS011;3469;47.060;15.460;2022-08-16T00:52:37;4.70;;;4.30;;
6860;SDS011;3469;47.060;15.460;2022-08-16T00:55:18;5.30;;;4.80;;
6860;SDS011;3469;47.060;15.460;2022-08-16T00:57:49;6.17;;;3.90;;
6860;SDS011;3469;47.060;15.460;2022-08-16T01:00:26;8.13;;;4.30;;
6860;SDS011;3469;47.060;15.460;2022-08-16T01:02:56;5.43;;;4.93;;
6860;SDS011;3469;47.060;15.460;2022-08-16T01:05:30;4.93;;;3.93;;
6860;SDS011;3469;47.060;15.460;2022-08-16T01:07:59;3.33;;;2.77;;
6860;SDS011;3469;47.060;15.460;2022-08-16T01:10:49;3.37;;;3.07;;
6860;SDS011;3469;47.060;15.460;2022-08-16T01:13:19;3.67;;;3.37;;
6860;SDS011;3469;47.060;15.460;2022-08-16T01:15:53;4.40;;;3.80;;
6860;SDS011;3469;47.060;15.460;2022-08-16T01:18:29;3.10;;;2.63;;
6860;SDS011;3469;47.060;15.460;2022-08-16T01:21:14;4.30;;;3.90;;
6860;SDS011;3469;47.060;15.460;2022-08-16T01:27:11;3.00;;;2.73;;
6860;SDS011;3469;47.060;15.460;2022-08-16T01:29:44;4.03;;;3.40;;
6860;SDS011;3469;47.060;15.460;2022-08-16T01:32:27;5.60;;;3.47;;
6860;SDS011;3469;47.060;15.460;2022-08-16T01:35:03;4.07;;;3.67;;
6860;SDS011;3469;47.060;15.460;2022-08-16T01:37:39;4.17;;;3.47;;
6860;SDS011;3469;47.060;15.460;2022-08-16T01:40:20;3.43;;;3.13;;
6860;SDS011;3469;47.060;15.460;2022-08-16T01:42:54;5.10;;;3.60;;
6860;SDS011;3469;47.060;15.460;2022-08-16T01:45:23;5.70;;;3.50;;
6860;SDS011;3469;47.060;15.460;2022-08-16T01:48:10;5.17;;;3.77;;
6860;SDS011;3469;47.060;15.460;2022-08-16T01:50:46;3.57;;;3.20;;
6860;SDS011;3469;47.060;15.460;2022-08-16T01:53:36;4.57;;;4.07;;
6860;SDS011;3469;47.060;15.460;2022-08-16T01:56:24;3.23;;;2.93;;
6860;SDS011;3469;47.060;15.460;2022-08-16T01:58:56;3.43;;;3.07;;
6860;SDS011;3469;47.060;15.460;2022-08-16T02:01:26;7.33;;;4.13;;
6860;SDS011;3469;47.060;15.460;2022-08-16T02:03:59;3.40;;;3.10;;
6860;SDS011;3469;47.060;15.460;2022-08-16T02:06:37;4.80;;;4.30;;
6860;SDS011;3469;47.060;15.460;2022-08-16T02:09:17;2.70;;;2.50;;
6860;SDS011;3469;47.060;15.460;2022-08-16T02:11:52;3.67;;;3.37;;
6860;SDS011;3469;47.060;15.460;2022-08-16T02:14:26;4.40;;;4.00;;
6860;SDS011;3469;47.060;15.460;2022-08-16T02:16:57;4.10;;;3.50;;
6860;SDS011;3469;47.060;15.460;2022-08-16T02:19:31;4.03;;;3.30;;
6860;SDS011;3469;47.060;15.460;2022-08-16T02:22:21;4.23;;;2.77;;
6860;SDS011;3469;47.060;15.460;2022-08-16T02:25:04;3.57;;;3.27;;
6860;SDS011;3469;47.060;15.460;2022-08-16T02:27:37;3.40;;;3.10;;
6860;SDS011;3469;47.060;15.460;2022-08-16T02:30:10;3.63;;;3.33;;
6860;SDS011;3469;47.060;15.460;2022-08-16T02:33:01;8.13;;;2.83;;
6860;SDS011;3469;47.060;15.460;2022-08-16T02:35:33;6.53;;;3.63;;
6860;SDS011;3469;47.060;15.460;2022-08-16T02:38:23;3.50;;;3.20;;
6860;SDS011;3469;47.060;15.460;2022-08-16T02:40:52;3.97;;;3.40;;
6860;SDS011;3469;47.060;15.460;2022-08-16T02:43:21;3.20;;;2.90;;
6860;SDS011;3469;47.060;15.460;2022-08-16T02:45:56;2.90;;;2.60;;
6860;SDS011;3469;47.060;15.460;2022-08-16T02:48:27;2.90;;;2.40;;
6860;SDS011;3469;47.060;15.460;2022-08-16T02:50:59;3.73;;;2.90;;
6860;SDS011;3469;47.060;15.460;2022-08-16T02:53:38;5.03;;;3.73;;
6860;SDS011;3469;47.060;15.460;2022-08-16T02:56:11;3.80;;;3.03;;
6860;SDS011;3469;47.060;15.460;2022-08-16T02:58:42;3.80;;;3.40;;
6860;SDS011;3469;47.060;15.460;2022-08-16T03:01:13;3.23;;;2.80;;
6860;SDS011;3469;47.060;15.460;2022-08-16T03:04:04;3.60;;;3.30;;
6860;SDS011;3469;47.060;15.460;2022-08-16T03:06:54;4.20;;;3.40;;
6860;SDS011;3469;47.060;15.460;2022-08-16T03:09:39;3.77;;;3.47;;
6860;SDS011;3469;47.060;15.460;2022-08-16T03:12:12;4.40;;;3.83;;
6860;SDS011;3469;47.060;15.460;2022-08-16T03:14:44;4.77;;;3.53;;
6860;SDS011;3469;47.060;15.460;2022-08-16T03:17:16;3.13;;;2.60;;
6860;SDS011;3469;47.060;15.460;2022-08-16T03:19:52;4.20;;;3.10;;
6860;SDS011;3469;47.060;15.460;2022-08-16T03:22:31;3.93;;;3.63;;
6860;SDS011;3469;47.060;15.460;2022-08-16T03:25:06;3.07;;;2.67;;
6860;SDS011;3469;47.060;15.460;2022-08-16T03:27:39;4.23;;;3.30;;
6860;SDS011;3469;47.060;15.460;2022-08-16T03:30:14;3.20;;;2.90;;
6860;SDS011;3469;47.060;15.460;2022-08-16T03:33:14;3.70;;;2.70;;
6860;SDS011;3469;47.060;15.460;2022-08-16T03:35:49;2.97;;;2.63;;
6860;SDS011;3469;47.060;15.460;2022-08-16T03:38:28;2.70;;;2.30;;
6860;SDS011;3469;47.060;15.460;2022-08-16T03:41:10;2.80;;;2.50;;
6860;SDS011;3469;47.060;15.460;2022-08-16T03:43:54;2.70;;;2.37;;
6860;SDS011;3469;47.060;15.460;2022-08-16T03:46:28;3.40;;;3.10;;
6860;SDS011;3469;47.060;15.460;2022-08-16T03:49:26;3.10;;;2.80;;
6860;SDS011;3469;47.060;15.460;2022-08-16T03:52:04;2.90;;;2.53;;
6860;SDS011;3469;47.060;15.460;2022-08-16T03:54:35;3.50;;;2.47;;
6860;SDS011;3469;47.060;15.460;2022-08-16T03:57:03;3.30;;;2.97;;
6860;SDS011;3469;47.060;15.460;2022-08-16T03:59:37;3.93;;;2.80;;
6860;SDS011;3469;47.060;15.460;2022-08-16T04:02:12;4.83;;;3.20;;
6860;SDS011;3469;47.060;15.460;2022-08-16T04:05:00;3.13;;;2.70;;
6860;SDS011;3469;47.060;15.460;2022-08-16T04:07:30;4.20;;;2.83;;
6860;SDS011;3469;47.060;15.460;2022-08-16T04:10:00;3.50;;;2.33;;
6860;SDS011;3469;47.060;15.460;2022-08-16T04:12:49;3.73;;;3.00;;
6860;SDS011;3469;47.060;15.460;2022-08-16T04:15:26;2.60;;;2.27;;
6860;SDS011;3469;47.060;15.460;2022-08-16T04:18:16;1.83;;;1.57;;
6860;SDS011;3469;47.060;15.460;2022-08-16T04:20:46;3.60;;;2.90;;
6860;SDS011;3469;47.060;15.460;2022-08-16T04:23:17;3.03;;;2.70;;
6860;SDS011;3469;47.060;15.460;2022-08-16T04:25:45;3.80;;;3.50;;
6860;SDS011;3469;47.060;15.460;2022-08-16T04:28:18;3.10;;;2.80;;
6860;SDS011;3469;47.060;15.460;2022-08-16T04:31:09;3.00;;;2.30;;
6860;SDS011;3469;47.060;15.460;2022-08-16T04:33:43;2.77;;;2.57;;
6860;SDS011;3469;47.060;15.460;2022-08-16T04:36:20;3.73;;;2.90;;
6860;SDS011;3469;47.060;15.460;2022-08-16T04:38:51;3.90;;;2.60;;
6860;SDS011;3469;47.060;15.460;2022-08-16T04:41:19;3.07;;;2.87;;
6860;SDS011;3469;47.060;15.460;2022-08-16T04:44:00;3.17;;;2.83;;
6860;SDS011;3469;47.060;15.460;2022-08-16T04:46:50;3.07;;;2.87;;
6860;SDS011;3469;47.060;15.460;2022-08-16T04:49:30;2.70;;;2.50;;
6860;SDS011;3469;47.060;15.460;2022-08-16T04:52:16;4.23;;;3.00;;
6860;SDS011;3469;47.060;15.460;2022-08-16T04:55:02;4.07;;;2.53;;
6860;SDS011;3469;47.060;15.460;2022-08-16T04:57:34;3.70;;;3.40;;
6860;SDS011;3469;47.060;15.460;2022-08-16T05:00:06;3.90;;;3.20;;
6860;SDS011;3469;47.060;15.460;2022-08-16T05:03:00;4.07;;;2.80;;
6860;SDS011;3469;47.060;15.460;2022-08-16T05:05:41;3.00;;;2.70;;
6860;SDS011;3469;47.060;15.460;2022-08-16T05:08:24;3.20;;;2.90;;
6860;SDS011;3469;47.060;15.460;2022-08-16T05:11:06;2.60;;;2.40;;
6860;SDS011;3469;47.060;15.460;2022-08-16T05:13:37;6.27;;;3.13;;
6860;SDS011;3469;47.060;15.460;2022-08-16T05:16:19;2.93;;;2.73;;
6860;SDS011;3469;47.060;15.460;2022-08-16T05:19:00;2.50;;;2.30;;
6860;SDS011;3469;47.060;15.460;2022-08-16T05:21:34;3.57;;;2.90;;
6860;SDS011;3469;47.060;15.460;2022-08-16T05:24:09;2.93;;;2.73;;
6860;SDS011;3469;47.060;15.460;2022-08-16T05:26:38;2.60;;;2.27;;
6860;SDS011;3469;47.060;15.460;2022-08-16T05:29:17;3.30;;;1.97;;
6860;SDS011;3469;47.060;15.460;2022-08-16T05:32:01;4.33;;;2.60;;
6860;SDS011;3469;47.060;15.460;2022-08-16T05:34:50;3.30;;;3.00;;
6860;SDS011;3469;47.060;15.460;2022-08-16T05:37:20;4.60;;;2.90;;
6860;SDS011;3469;47.060;15.460;2022-08-16T05:39:53;3.20;;;3.00;;
6860;SDS011;3469;47.060;15.460;2022-08-16T05:42:21;4.80;;;2.53;;
6860;SDS011;3469;47.060;15.460;2022-08-16T05:45:03;5.13;;;3.30;;
6860;SDS011;3469;47.060;15.460;2022-08-16T05:47:34;5.03;;;3.30;;
6860;SDS011;3469;47.060;15.460;2022-08-16T05:50:09;3.77;;;2.77;;
6860;SDS011;3469;47.060;15.460;2022-08-16T05:52:46;3.20;;;2.90;;
6860;SDS011;3469;47.060;15.460;2022-08-16T05:55:17;4.10;;;2.90;;
6860;SDS011;3469;47.060;15.460;2022-08-16T05:57:49;2.00;;;1.63;;
6860;SDS011;3469;47.060;15.460;2022-08-16T06:00:19;3.20;;;2.77;;
6860;SDS011;3469;47.060;15.460;2022-08-16T06:02:49;6.43;;;2.53;;
6860;SDS011;3469;47.060;15.460;2022-08-16T06:05:36;2.77;;;2.27;;
6860;SDS011;3469;47.060;15.460;2022-08-16T06:08:08;4.47;;;3.30;;
6860;SDS011;3469;47.060;15.460;2022-08-16T06:10:58;3.40;;;3.10;;
6860;SDS011;3469;47.060;15.460;2022-08-16T06:13:35;2.60;;;2.40;;
6860;SDS011;3469;47.060;15.460;2022-08-16T06:16:11;4.20;;;3.10;;
6860;SDS011;3469;47.060;15.460;2022-08-16T06:18:45;3.47;;;2.57;;
6860;SDS011;3469;47.060;15.460;2022-08-16T06:21:16;3.50;;;3.20;;
6860;SDS011;3469;47.060;15.460;2022-08-16T06:23:52;4.10;;;3.00;;
6860;SDS011;3469;47.060;15.460;2022-08-16T06:26:23;3.17;;;2.83;;
6860;SDS011;3469;47.060;15.460;2022-08-16T06:29:06;2.90;;;2.70;;
6860;SDS011;3469;47.060;15.460;2022-08-16T06:31:37;3.20;;;2.83;;
6860;SDS011;3469;47.060;15.460;2022-08-16T06:34:16;1.90;;;1.80;;
6860;SDS011;3469;47.060;15.460;2022-08-16T06:37:07;2.97;;;1.93;;
6860;SDS011;3469;47.060;15.460;2022-08-16T06:39:38;4.37;;;3.00;;
6860;SDS011;3469;47.060;15.460;2022-08-16T06:42:27;3.20;;;2.53;;
6860;SDS011;3469;47.060;15.460;2022-08-16T06:45:32;3.17;;;2.97;;
6860;SDS011;3469;47.060;15.460;2022-08-16T06:48:12;3.63;;;2.87;;
6860;SDS011;3469;47.060;15.460;2022-08-16T06:50:44;3.90;;;2.90;;
6860;SDS011;3469;47.060;15.460;2022-08-16T06:53:18;4.00;;;2.70;;
6860;SDS011;3469;47.060;15.460;2022-08-16T06:55:58;3.10;;;2.70;;
6860;SDS011;3469;47.060;15.460;2022-08-16T06:58:40;2.87;;;2.67;;
6860;SDS011;3469;47.060;15.460;2022-08-16T07:01:13;5.20;;;2.90;;
6860;SDS011;3469;47.060;15.460;2022-08-16T07:03:49;2.90;;;2.70;;
6860;SDS011;3469;47.060;15.460;2022-08-16T07:06:26;2.67;;;2.30;;
6860;SDS011;3469;47.060;15.460;2022-08-16T07:09:00;4.00;;;2.77;;
6860;SDS011;3469;47.060;15.460;2022-08-16T07:11:36;2.70;;;2.30;;
6860;SDS011;3469;47.060;15.460;2022-08-16T07:14:23;4.20;;;2.97;;
6860;SDS011;3469;47.060;15.460;2022-08-16T07:16:56;6.80;;;3.20;;
6860;SDS011;3469;47.060;15.460;2022-08-16T07:19:26;4.63;;;3.17;;
6860;SDS011;3469;47.060;15.460;2022-08-16T07:22:21;3.07;;;2.77;;
6860;SDS011;3469;47.060;15.460;2022-08-16T07:25:18;3.17;;;2.73;;
6860;SDS011;3469;47.060;15.460;2022-08-16T07:27:49;3.53;;;2.70;;
6860;SDS011;3469;47.060;15.460;2022-08-16T07:30:22;3.50;;;3.20;;
6860;SDS011;3469;47.060;15.460;2022-08-16T07:33:20;6.20;;;3.40;;
6860;SDS011;3469;47.060;15.460;2022-08-16T07:36:09;4.20;;;2.97;;
6860;SDS011;3469;47.060;15.460;2022-08-16T07:38:47;6.03;;;3.00;;
6860;SDS011;3469;47.060;15.460;2022-08-16T07:41:16;4.87;;;2.73;;
6860;SDS011;3469;47.060;15.460;2022-08-16T07:43:50;5.70;;;3.00;;
6860;SDS011;3469;47.060;15.460;2022-08-16T07:46:21;3.13;;;2.83;;
6860;SDS011;3469;47.060;15.460;2022-08-16T07:49:12;4.53;;;3.80;;
6860;SDS011;3469;47.060;15.460;2022-08-16T07:51:44;4.37;;;3.10;;
6860;SDS011;3469;47.060;15.460;2022-08-16T07:54:15;3.10;;;2.80;;
6860;SDS011;3469;47.060;15.460;2022-08-16T07:57:00;3.37;;;3.07;;
6860;SDS011;3469;47.060;15.460;2022-08-16T07:59:29;4.53;;;2.70;;
6860;SDS011;3469;47.060;15.460;2022-08-16T08:02:14;4.00;;;2.80;;
6860;SDS011;3469;47.060;15.460;2022-08-16T08:04:48;3.03;;;2.77;;
6860;SDS011;3469;47.060;15.460;2022-08-16T08:07:18;3.23;;;2.90;;
6860;SDS011;3469;47.060;15.460;2022-08-16T08:09:48;3.00;;;2.80;;
6860;SDS011;3469;47.060;15.460;2022-08-16T08:12:18;3.50;;;2.90;;
6860;SDS011;3469;47.060;15.460;2022-08-16T08:15:00;5.60;;;2.90;;
6860;SDS011;3469;47.060;15.460;2022-08-16T08:17:31;3.90;;;3.57;;
6860;SDS011;3469;47.060;15.460;2022-08-16T08:20:20;3.77;;;2.90;;
6860;SDS011;3469;47.060;15.460;2022-08-16T08:22:58;11.10;;;3.47;;
6860;SDS011;3469;47.060;15.460;2022-08-16T08:25:39;7.67;;;3.27;;
6860;SDS011;3469;47.060;15.460;2022-08-16T08:28:25;5.07;;;3.47;;
6860;SDS011;3469;47.060;15.460;2022-08-16T08:31:01;5.80;;;3.50;;
6860;SDS011;3469;47.060;15.460;2022-08-16T08:33:36;5.87;;;3.97;;
6860;SDS011;3469;47.060;15.460;2022-08-16T08:36:13;5.87;;;3.40;;
6860;SDS011;3469;47.060;15.460;2022-08-16T08:38:49;5.73;;;3.10;;
6860;SDS011;3469;47.060;15.460;2022-08-16T08:41:18;4.60;;;3.47;;
6860;SDS011;3469;47.060;15.460;2022-08-16T08:43:55;6.40;;;3.70;;
6860;SDS011;3469;47.060;15.460;2022-08-16T08:46:24;5.57;;;3.40;;
6860;SDS011;3469;47.060;15.460;2022-08-16T08:48:56;3.43;;;3.13;;
6860;SDS011;3469;47.060;15.460;2022-08-16T08:51:36;6.17;;;3.20;;
6860;SDS011;3469;47.060;15.460;2022-08-16T08:54:11;4.13;;;2.83;;
6860;SDS011;3469;47.060;15.460;2022-08-16T08:56:50;4.93;;;2.80;;
6860;SDS011;3469;47.060;15.460;2022-08-16T08:59:48;9.03;;;3.50;;
6860;SDS011;3469;47.060;15.460;2022-08-16T09:02:18;2.80;;;2.60;;
6860;SDS011;3469;47.060;15.460;2022-08-16T09:04:56;3.20;;;2.90;;
6860;SDS011;3469;47.060;15.460;2022-08-16T09:07:24;3.13;;;2.80;;
6860;SDS011;3469;47.060;15.460;2022-08-16T09:09:56;4.80;;;3.20;;
6860;SDS011;3469;47.060;15.460;2022-08-16T09:12:35;6.77;;;2.90;;
6860;SDS011;3469;47.060;15.460;2022-08-16T09:15:07;8.40;;;3.20;;
6860;SDS011;3469;47.060;15.460;2022-08-16T09:17:42;2.93;;;2.63;;
6860;SDS011;3469;47.060;15.460;2022-08-16T09:20:22;6.07;;;2.67;;
6860;SDS011;3469;47.060;15.460;2022-08-16T09:22:52;4.07;;;2.93;;
6860;SDS011;3469;47.060;15.460;2022-08-16T09:25:31;3.10;;;2.80;;
6860;SDS011;3469;47.060;15.460;2022-08-16T09:28:04;3.17;;;2.97;;
6860;SDS011;3469;47.060;15.460;2022-08-16T09:30:52;3.43;;;3.07;;
6860;SDS011;3469;47.060;15.460;2022-08-16T09:33:21;4.37;;;3.10;;
6860;SDS011;3469;47.060;15.460;2022-08-16T09:35:51;4.30;;;3.30;;
6860;SDS011;3469;47.060;15.460;2022-08-16T09:38:20;3.47;;;3.17;;
6860;SDS011;3469;47.060;15.460;2022-08-16T09:40:59;4.67;;;3.60;;
6860;SDS011;3469;47.060;15.460;2022-08-16T09:43:28;4.40;;;4.00;;
6860;SDS011;3469;47.060;15.460;2022-08-16T09:46:17;3.70;;;3.40;;
6860;SDS011;3469;47.060;15.460;2022-08-16T09:49:06;5.63;;;3.90;;
6860;SDS011;3469;47.060;15.460;2022-08-16T09:51:39;5.10;;;3.83;;
6860;SDS011;3469;47.060;15.460;2022-08-16T09:54:08;4.00;;;3.70;;
6860;SDS011;3469;47.060;15.460;2022-08-16T09:56:46;4.27;;;3.43;;
6860;SDS011;3469;47.060;15.460;2022-08-16T09:59:19;4.27;;;3.77;;
6860;SDS011;3469;47.060;15.460;2022-08-16T10:01:48;3.73;;;3.33;;
6860;SDS011;3469;47.060;15.460;2022-08-16T10:04:17;3.97;;;3.67;;
6860;SDS011;3469;47.060;15.460;2022-08-16T10:07:03;4.20;;;3.60;;
6860;SDS011;3469;47.060;15.460;2022-08-16T10:09:41;4.10;;;3.70;;
6860;SDS011;3469;47.060;15.460;2022-08-16T10:12:23;4.97;;;3.37;;
6860;SDS011;3469;47.060;15.460;2022-08-16T10:15:11;3.50;;;3.20;;
6860;SDS011;3469;47.060;15.460;2022-08-16T10:17:43;3.83;;;3.53;;
6860;SDS011;3469;47.060;15.460;2022-08-16T10:20:29;3.57;;;3.30;;
6860;SDS011;3469;47.060;15.460;2022-08-16T10:23:01;4.10;;;3.70;;
6860;SDS011;3469;47.060;15.460;2022-08-16T10:25:33;10.07;;;3.57;;
6860;SDS011;3469;47.060;15.460;2022-08-16T10:28:22;4.03;;;3.73;;
6860;SDS011;3469;47.060;15.460;2022-08-16T10:30:55;5.20;;;3.23;;
6860;SDS011;3469;47.060;15.460;2022-08-16T10:33:25;3.60;;;3.30;;
6860;SDS011;3469;47.060;15.460;2022-08-16T10:35:59;3.73;;;3.43;;
6860;SDS011;3469;47.060;15.460;2022-08-16T10:38:31;4.70;;;3.30;;
6860;SDS011;3469;47.060;15.460;2022-08-16T10:41:03;4.20;;;3.90;;
6860;SDS011;3469;47.060;15.460;2022-08-16T10:43:33;4.30;;;3.90;;
6860;SDS011;3469;47.060;15.460;2022-08-16T10:46:01;4.17;;;3.40;;
6860;SDS011;3469;47.060;15.460;2022-08-16T10:48:50;9.03;;;3.80;;
6860;SDS011;3469;47.060;15.460;2022-08-16T10:51:19;4.40;;;4.00;;
6860;SDS011;3469;47.060;15.460;2022-08-16T10:54:09;4.20;;;3.80;;
6860;SDS011;3469;47.060;15.460;2022-08-16T10:56:55;3.73;;;3.47;;
6860;SDS011;3469;47.060;15.460;2022-08-16T10:59:25;4.30;;;3.90;;
6860;SDS011;3469;47.060;15.460;2022-08-16T11:02:12;4.20;;;3.73;;
6860;SDS011;3469;47.060;15.460;2022-08-16T11:05:00;4.37;;;3.97;;
6860;SDS011;3469;47.060;15.460;2022-08-16T11:07:31;4.57;;;4.17;;
6860;SDS011;3469;47.060;15.460;2022-08-16T11:10:11;3.73;;;3.53;;
6860;SDS011;3469;47.060;15.460;2022-08-16T11:13:06;4.23;;;3.87;;
6860;SDS011;3469;47.060;15.460;2022-08-16T11:15:56;4.60;;;4.20;;
6860;SDS011;3469;47.060;15.460;2022-08-16T11:18:26;4.10;;;3.80;;
6860;SDS011;3469;47.060;15.460;2022-08-16T11:21:15;4.40;;;4.00;;
6860;SDS011;3469;47.060;15.460;2022-08-16T11:23:55;4.40;;;4.00;;
6860;SDS011;3469;47.060;15.460;2022-08-16T11:26:26;4.03;;;3.67;;
6860;SDS011;3469;47.060;15.460;2022-08-16T11:28:56;7.13;;;4.10;;
6860;SDS011;3469;47.060;15.460;2022-08-16T11:31:41;4.30;;;4.00;;
6860;SDS011;3469;47.060;15.460;2022-08-16T11:34:19;4.40;;;3.97;;
6860;SDS011;3469;47.060;15.460;2022-08-16T11:36:48;4.60;;;4.20;;
6860;SDS011;3469;47.060;15.460;2022-08-16T11:39:26;5.80;;;3.97;;
6860;SDS011;3469;47.060;15.460;2022-08-16T11:41:58;4.40;;;4.00;;
6860;SDS011;3469;47.060;15.460;2022-08-16T11:44:28;3.70;;;3.40;;
6860;SDS011;3469;47.060;15.460;2022-08-16T11:47:16;4.83;;;4.50;;
6860;SDS011;3469;47.060;15.460;2022-08-16T11:49:45;4.80;;;4.40;;
6860;SDS011;3469;47.060;15.460;2022-08-16T11:52:14;4.53;;;4.13;;
6860;SDS011;3469;47.060;15.460;2022-08-16T11:54:47;4.93;;;4.43;;
6860;SDS011;3469;47.060;15.460;2022-08-16T11:57:24;5.00;;;4.60;;
6860;SDS011;3469;47.060;15.460;2022-08-16T11:59:54;4.60;;;4.30;;
6860;SDS011;3469;47.060;15.460;2022-08-16T12:02:22;5.07;;;4.67;;
6860;SDS011;3469;47.060;15.460;2022-08-16T12:05:00;4.60;;;4.30;;
6860;SDS011;3469;47.060;15.460;2022-08-16T12:07:28;7.33;;;4.90;;
6860;SDS011;3469;47.060;15.460;2022-08-16T12:09:59;5.10;;;4.80;;
6860;SDS011;3469;47.060;15.460;2022-08-16T12:12:29;9.40;;;4.70;;
6860;SDS011;3469;47.060;15.460;2022-08-16T12:14:59;4.77;;;4.33;;
6860;SDS011;3469;47.060;15.460;2022-08-16T12:17:28;5.37;;;4.97;;
6860;SDS011;3469;47.060;15.460;2022-08-16T12:19:58;5.80;;;5.23;;
6860;SDS011;3469;47.060;15.460;2022-08-16T12:22:26;4.70;;;4.30;;
6860;SDS011;3469;47.060;15.460;2022-08-16T12:24:55;4.93;;;4.63;;
6860;SDS011;3469;47.060;15.460;2022-08-16T12:27:25;5.63;;;5.00;;
6860;SDS011;3469;47.060;15.460;2022-08-16T12:29:58;5.30;;;4.40;;
6860;SDS011;3469;47.060;15.460;2022-08-16T12:32:26;4.93;;;4.50;;
6860;SDS011;3469;47.060;15.460;2022-08-16T12:35:06;5.50;;;5.10;;
6860;SDS011;3469;47.060;15.460;2022-08-16T12:37:36;4.43;;;4.10;;
6860;SDS011;3469;47.060;15.460;2022-08-16T12:40:08;5.50;;;4.80;;
6860;SDS011;3469;47.060;15.460;2022-08-16T12:42:51;5.63;;;4.53;;
6860;SDS011;3469;47.060;15.460;2022-08-16T12:45:27;4.27;;;3.93;;
6860;SDS011;3469;47.060;15.460;2022-08-16T12:48:02;4.70;;;4.30;;
6860;SDS011;3469;47.060;15.460;2022-08-16T12:51:09;4.47;;;4.17;;
6860;SDS011;3469;47.060;15.460;2022-08-16T12:53:50;5.20;;;4.70;;
6860;SDS011;3469;47.060;15.460;2022-08-16T12:56:20;4.57;;;4.17;;
6860;SDS011;3469;47.060;15.460;2022-08-16T12:58:51;4.40;;;4.00;;
6860;SDS011;3469;47.060;15.460;2022-08-16T13:01:24;4.73;;;4.40;;
6860;SDS011;3469;47.060;15.460;2022-08-16T13:03:55;4.50;;;4.20;;
6860;SDS011;3469;47.060;15.460;2022-08-16T13:06:45;4.80;;;4.40;;
6860;SDS011;3469;47.060;15.460;2022-08-16T13:09:18;4.40;;;4.00;;
6860;SDS011;3469;47.060;15.460;2022-08-16T13:11:55;5.17;;;4.77;;
6860;SDS011;3469;47.060;15.460;2022-08-16T13:14:30;4.80;;;4.40;;
6860;SDS011;3469;47.060;15.460;2022-08-16T13:17:04;4.87;;;4.47;;
6860;SDS011;3469;47.060;15.460;2022-08-16T13:19:37;5.47;;;4.77;;
6860;SDS011;3469;47.060;15.460;2022-08-16T13:22:25;5.90;;;5.30;;
6860;SDS011;3469;47.060;15.460;2022-08-16T13:24:57;5.00;;;4.63;;
6860;SDS011;3469;47.060;15.460;2022-08-16T13:27:25;6.80;;;5.60;;
6860;SDS011;3469;47.060;15.460;2022-08-16T13:30:14;6.57;;;5.20;;
6860;SDS011;3469;47.060;15.460;2022-08-16T13:33:04;6.67;;;6.17;;
6860;SDS011;3469;47.060;15.460;2022-08-16T13:35:39;7.13;;;6.43;;
6860;SDS011;3469;47.060;15.460;2022-08-16T13:38:10;6.83;;;6.10;;
6860;SDS011;3469;47.060;15.460;2022-08-16T13:40:51;5.73;;;5.33;;
6860;SDS011;3469;47.060;15.460;2022-08-16T13:43:22;6.03;;;5.63;;
6860;SDS011;3469;47.060;15.460;2022-08-16T13:45:52;4.90;;;4.50;;
6860;SDS011;3469;47.060;15.460;2022-08-16T13:48:23;9.43;;;8.60;;
6860;SDS011;3469;47.060;15.460;2022-08-16T13:51:08;6.00;;;5.50;;
6860;SDS011;3469;47.060;15.460;2022-08-16T13:53:42;5.87;;;5.37;;
6860;SDS011;3469;47.060;15.460;2022-08-16T13:56:20;5.67;;;5.27;;
6860;SDS011;3469;47.060;15.460;2022-08-16T13:58:51;5.63;;;5.23;;
6860;SDS011;3469;47.060;15.460;2022-08-16T14:01:22;6.33;;;5.73;;
6860;SDS011;3469;47.060;15.460;2022-08-16T14:03:52;5.63;;;5.13;;
6860;SDS011;3469;47.060;15.460;2022-08-16T14:06:21;6.23;;;5.63;;
6860;SDS011;3469;47.060;15.460;2022-08-16T14:08:50;4.70;;;4.40;;
6860;SDS011;3469;47.060;15.460;2022-08-16T14:11:31;4.37;;;4.00;;
6860;SDS011;3469;47.060;15.460;2022-08-16T14:14:00;4.60;;;3.60;;
6860;SDS011;3469;47.060;15.460;2022-08-16T14:16:32;4.40;;;4.10;;
6860;SDS011;3469;47.060;15.460;2022-08-16T14:19:02;5.13;;;4.47;;
6860;SDS011;3469;47.060;15.460;2022-08-16T14:21:33;6.20;;;4.10;;
6860;SDS011;3469;47.060;15.460;2022-08-16T14:24:03;4.83;;;4.23;;
6860;SDS011;3469;47.060;15.460;2022-08-16T14:26:52;7.20;;;4.90;;
6860;SDS011;3469;47.060;15.460;2022-08-16T14:29:22;4.67;;;4.27;;
6860;SDS011;3469;47.060;15.460;2022-08-16T14:31:55;4.43;;;3.80;;
6860;SDS011;3469;47.060;15.460;2022-08-16T14:34:25;6.47;;;4.10;;
6860;SDS011;3469;47.060;15.460;2022-08-16T14:36:56;4.83;;;4.37;;
6860;SDS011;3469;47.060;15.460;2022-08-16T14:39:25;6.90;;;4.40;;
6860;SDS011;3469;47.060;15.460;2022-08-16T14:41:53;4.83;;;4.43;;
6860;SDS011;3469;47.060;15.460;2022-08-16T14:44:22;3.90;;;3.63;;
6860;SDS011;3469;47.060;15.460;2022-08-16T14:46:53;4.27;;;3.97;;
6860;SDS011;3469;47.060;15.460;2022-08-16T14:49:22;4.23;;;3.93;;
6860;SDS011;3469;47.060;15.460;2022-08-16T14:51:52;4.10;;;3.80;;
6860;SDS011;3469;47.060;15.460;2022-08-16T14:54:20;4.30;;;4.00;;
6860;SDS011;3469;47.060;15.460;2022-08-16T14:56:56;4.30;;;3.73;;
6860;SDS011;3469;47.060;15.460;2022-08-16T14:59:24;4.97;;;3.50;;
6860;SDS011;3469;47.060;15.460;2022-08-16T15:01:55;4.43;;;4.03;;
6860;SDS011;3469;47.060;15.460;2022-08-16T15:04:27;3.67;;;3.37;;
6860;SDS011;3469;47.060;15.460;2022-08-16T15:07:15;4.20;;;3.90;;
6860;SDS011;3469;47.060;15.460;2022-08-16T15:09:47;6.57;;;3.60;;
6860;SDS011;3469;47.060;15.460;2022-08-16T15:12:27;4.03;;;3.60;;
6860;SDS011;3469;47.060;15.460;2022-08-16T15:15:03;4.80;;;4.40;;
6860;SDS011;3469;47.060;15.460;2022-08-16T15:17:42;4.27;;;3.97;;
6860;SDS011;3469;47.060;15.460;2022-08-16T15:20:23;4.33;;;3.97;;
6860;SDS011;3469;47.060;15.460;2022-08-16T15:22:54;5.10;;;4.70;;
6860;SDS011;3469;47.060;15.460;2022-08-16T15:25:24;4.63;;;4.30;;
6860;SDS011;3469;47.060;15.460;2022-08-16T15:27:55;5.10;;;4.70;;
6860;SDS011;3469;47.060;15.460;2022-08-16T15:30:24;4.83;;;4.40;;
6860;SDS011;3469;47.060;15.460;2022-08-16T15:33:14;5.40;;;4.90;;
6860;SDS011;3469;47.060;15.460;2022-08-16T15:35:46;4.47;;;4.07;;
6860;SDS011;3469;47.060;15.460;2022-08-16T15:38:17;4.90;;;4.50;;
6860;SDS011;3469;47.060;15.460;2022-08-16T15:41:06;4.80;;;4.50;;
6860;SDS011;3469;47.060;15.460;2022-08-16T15:43:38;4.70;;;4.30;;
6860;SDS011;3469;47.060;15.460;2022-08-16T15:46:07;5.40;;;5.00;;
6860;SDS011;3469;47.060;15.460;2022-08-16T15:49:10;5.10;;;4.70;;
6860;SDS011;3469;47.060;15.460;2022-08-16T15:51:39;5.03;;;4.53;;
6860;SDS011;3469;47.060;15.460;2022-08-16T15:54:12;5.03;;;4.63;;
6860;SDS011;3469;47.060;15.460;2022-08-16T15:56:56;4.83;;;4.33;;
6860;SDS011;3469;47.060;15.460;2022-08-16T15:59:38;5.10;;;4.70;;